createdAt,value
2022-11-20T00:01:35.556Z,49.00
2022-11-20T00:04:04.048Z,50.40
2022-11-20T00:06:32.438Z,54.50
2022-11-20T00:09:02.834Z,53.80
2022-11-20T00:11:32.996Z,56.00
2022-11-20T00:14:02.957Z,58.83
2022-11-20T00:16:33.905Z,53.63
2022-11-20T00:19:02.636Z,54.53
2022-11-20T00:21:31.930Z,60.03
2022-11-20T00:24:01.539Z,57.27
2022-11-20T00:26:31.289Z,52.33
2022-11-20T00:29:01.227Z,52.97
2022-11-20T00:31:30.291Z,54.67
2022-11-20T00:33:59.468Z,57.20
2022-11-20T00:36:29.679Z,55.70
2022-11-20T00:38:59.561Z,54.60
2022-11-20T00:41:30.696Z,55.00
2022-11-20T00:43:59.029Z,51.73
2022-11-20T00:46:29.141Z,58.67
2022-11-20T00:48:57.722Z,60.57
2022-11-20T00:51:27.630Z,55.90
2022-11-20T00:53:58.038Z,49.60
2022-11-20T00:56:26.409Z,55.97
2022-11-20T00:58:56.322Z,51.30
2022-11-20T01:01:27.321Z,54.57
2022-11-20T01:03:57.850Z,56.47
2022-11-20T01:06:28.234Z,53.63
2022-11-20T01:08:58.249Z,54.17
2022-11-20T01:11:28.630Z,49.10
2022-11-20T01:13:59.350Z,50.70
2022-11-20T01:16:30.224Z,43.07
2022-11-20T01:19:00.854Z,43.30
2022-11-20T01:21:31.113Z,43.23
2022-11-20T01:24:00.408Z,51.40
2022-11-20T01:26:30.518Z,47.27
2022-11-20T01:29:01.489Z,45.37
2022-11-20T01:31:31.967Z,48.00
2022-11-20T01:34:02.266Z,44.03
2022-11-20T01:36:32.584Z,50.87
2022-11-20T01:39:02.444Z,46.37
2022-11-20T01:41:49.509Z,48.07
2022-11-20T01:44:21.579Z,44.63
2022-11-20T01:46:57.845Z,43.37
2022-11-20T01:49:29.016Z,44.03
2022-11-20T01:52:01.788Z,40.50
2022-11-20T01:54:34.047Z,45.10
2022-11-20T01:57:03.747Z,41.83
2022-11-20T01:59:33.677Z,43.30
2022-11-20T02:02:02.130Z,45.97
2022-11-20T02:04:30.524Z,46.53
2022-11-20T02:07:02.340Z,49.70
2022-11-20T02:09:31.096Z,51.53
2022-11-20T02:12:01.000Z,53.70
2022-11-20T02:14:29.029Z,43.67
2022-11-20T02:16:58.675Z,42.97
2022-11-20T02:19:30.177Z,43.13
2022-11-20T02:22:07.650Z,40.80
2022-11-20T02:24:37.326Z,46.17
2022-11-20T02:27:09.686Z,44.60
2022-11-20T02:29:41.475Z,44.60
2022-11-20T02:32:20.678Z,43.57
2022-11-20T02:34:49.075Z,41.63
2022-11-20T02:37:18.796Z,39.80
2022-11-20T02:39:50.697Z,37.50
2022-11-20T02:42:19.069Z,33.40
2022-11-20T02:44:47.317Z,36.97
2022-11-20T02:47:15.740Z,36.47
2022-11-20T02:49:44.001Z,37.37
2022-11-20T02:52:12.325Z,38.10
2022-11-20T02:54:40.587Z,36.07
2022-11-20T02:57:10.210Z,37.13
2022-11-20T02:59:38.578Z,41.87
2022-11-20T03:02:07.098Z,38.97
2022-11-20T03:04:35.489Z,44.27
2022-11-20T03:07:03.922Z,39.27
2022-11-20T03:09:32.235Z,34.50
2022-11-20T03:12:00.610Z,37.73
2022-11-20T03:14:30.205Z,41.73
2022-11-20T03:16:58.733Z,35.57
2022-11-20T03:19:27.077Z,37.23
2022-11-20T03:21:55.287Z,36.93
2022-11-20T03:24:23.607Z,31.73
2022-11-20T03:26:51.861Z,39.43
2022-11-20T03:29:20.630Z,42.20
2022-11-20T03:31:50.484Z,34.37
2022-11-20T03:34:18.800Z,36.93
2022-11-20T03:36:47.838Z,33.97
2022-11-20T03:39:16.035Z,42.20
2022-11-20T03:41:44.531Z,36.03
2022-11-20T03:44:13.627Z,35.47
2022-11-20T03:46:41.926Z,37.17
2022-11-20T03:49:11.535Z,33.37
2022-11-20T03:51:39.815Z,31.10
2022-11-20T03:54:10.328Z,31.97
2022-11-20T03:56:40.351Z,38.83
2022-11-20T03:59:09.169Z,40.20
2022-11-20T04:01:38.995Z,37.83
2022-11-20T04:04:08.095Z,31.13
2022-11-20T04:06:39.756Z,32.50
2022-11-20T04:09:08.599Z,30.23
2022-11-20T04:11:41.558Z,32.00
2022-11-20T04:14:16.647Z,41.53
2022-11-20T04:16:45.368Z,31.37
2022-11-20T04:19:15.564Z,40.10
2022-11-20T04:21:46.131Z,37.80
2022-11-20T04:24:14.572Z,37.87
2022-11-20T04:26:43.092Z,33.10
2022-11-20T04:29:13.706Z,31.80
2022-11-20T04:31:42.056Z,36.53
2022-11-20T04:34:13.660Z,28.67
2022-11-20T04:36:42.076Z,32.67
2022-11-20T04:39:17.942Z,27.77
2022-11-20T04:41:46.558Z,32.90
2022-11-20T04:44:14.880Z,29.27
2022-11-20T04:46:44.397Z,31.80
2022-11-20T04:49:13.462Z,33.73
2022-11-20T04:51:41.863Z,28.67
2022-11-20T04:54:11.269Z,28.77
2022-11-20T04:56:40.927Z,29.27
2022-11-20T04:59:09.267Z,27.63
2022-11-20T05:01:37.728Z,25.73
2022-11-20T05:04:06.699Z,27.13
2022-11-20T05:06:35.150Z,29.10
2022-11-20T05:09:03.469Z,26.23
2022-11-20T05:11:31.738Z,30.40
2022-11-20T05:14:02.579Z,38.37
2022-11-20T05:16:31.178Z,32.77
2022-11-20T05:18:59.548Z,34.13
2022-11-20T05:21:28.568Z,55.43
2022-11-20T05:23:56.897Z,41.53
2022-11-20T05:26:25.355Z,40.10
2022-11-20T05:28:54.099Z,40.37
2022-11-20T05:31:28.229Z,43.03
2022-11-20T05:33:58.214Z,42.53
2022-11-20T05:36:27.047Z,52.03
2022-11-20T05:39:01.048Z,46.13
2022-11-20T05:41:30.314Z,36.47
2022-11-20T05:43:59.871Z,37.57
2022-11-20T05:46:29.871Z,39.07
2022-11-20T05:48:59.327Z,33.70
2022-11-20T05:51:28.361Z,37.07
2022-11-20T05:53:59.511Z,41.37
2022-11-20T05:56:27.800Z,40.17
2022-11-20T05:58:56.130Z,40.73
2022-11-20T06:01:26.459Z,39.80
2022-11-20T06:03:57.095Z,36.53
2022-11-20T06:06:26.268Z,36.20
2022-11-20T06:08:54.633Z,31.77
2022-11-20T06:11:23.270Z,33.37
2022-11-20T06:13:51.750Z,32.10
2022-11-20T06:16:22.815Z,39.27
2022-11-20T06:18:51.464Z,36.13
2022-11-20T06:21:23.273Z,36.93
2022-11-20T06:23:52.918Z,32.07
2022-11-20T06:26:23.103Z,36.00
2022-11-20T06:28:52.057Z,28.03
2022-11-20T06:31:22.208Z,27.30
2022-11-20T06:33:51.229Z,27.60
2022-11-20T06:36:22.777Z,30.77
2022-11-20T06:38:51.804Z,38.70
2022-11-20T06:41:22.266Z,33.47
2022-11-20T06:43:50.965Z,33.57
2022-11-20T06:46:20.908Z,30.93
2022-11-20T06:48:50.019Z,30.30
2022-11-20T06:51:18.718Z,30.57
2022-11-20T06:53:48.372Z,35.90
2022-11-20T06:56:16.889Z,33.63
2022-11-20T06:58:45.295Z,30.50
2022-11-20T07:01:15.540Z,38.03
2022-11-20T07:03:44.209Z,38.37
2022-11-20T07:06:12.951Z,34.60
2022-11-20T07:08:41.293Z,33.43
2022-11-20T07:11:14.944Z,30.40
2022-11-20T07:13:43.341Z,29.20
2022-11-20T07:16:11.741Z,31.27
2022-11-20T07:18:40.187Z,28.33
2022-11-20T07:21:10.556Z,29.27
2022-11-20T07:23:39.551Z,29.87
2022-11-20T07:26:09.364Z,33.33
2022-11-20T07:28:39.339Z,27.03
2022-11-20T07:31:08.632Z,29.10
2022-11-20T07:33:37.127Z,27.73
2022-11-20T07:36:05.929Z,27.27
2022-11-20T07:38:34.216Z,27.23
2022-11-20T07:41:02.859Z,26.37
2022-11-20T07:43:31.495Z,26.83
2022-11-20T07:46:02.197Z,25.37
2022-11-20T07:48:30.455Z,26.87
2022-11-20T07:50:59.138Z,25.73
2022-11-20T07:53:27.529Z,25.03
2022-11-20T07:55:55.867Z,25.47
2022-11-20T07:58:24.212Z,30.37
2022-11-20T08:00:52.520Z,30.90
2022-11-20T08:03:25.089Z,28.13
2022-11-20T08:05:53.935Z,30.53
2022-11-20T08:08:22.706Z,29.53
2022-11-20T08:10:51.002Z,28.87
2022-11-20T08:13:36.897Z,31.17
2022-11-20T08:16:05.467Z,28.67
2022-11-20T08:18:35.116Z,29.10
2022-11-20T08:21:05.820Z,29.63
2022-11-20T08:23:34.141Z,28.53
2022-11-20T08:26:02.452Z,28.00
2022-11-20T08:28:30.766Z,27.43
2022-11-20T08:31:01.612Z,27.77
2022-11-20T08:33:30.772Z,30.57
2022-11-20T08:36:03.046Z,26.67
2022-11-20T08:38:32.056Z,26.97
2022-11-20T08:41:18.657Z,27.13
2022-11-20T08:43:46.981Z,26.40
2022-11-20T08:46:15.288Z,28.83
2022-11-20T08:48:44.254Z,27.17
2022-11-20T08:51:14.510Z,25.70
2022-11-20T08:53:43.854Z,23.60
2022-11-20T08:56:12.256Z,25.53
2022-11-20T08:59:09.856Z,25.07
2022-11-20T09:01:30.340Z,23.13
2022-11-20T09:03:58.920Z,25.17
2022-11-20T09:06:28.725Z,24.07
2022-11-20T09:09:02.059Z,27.33
2022-11-20T09:11:33.417Z,25.40
2022-11-20T09:14:03.980Z,26.43
2022-11-20T09:16:32.267Z,26.83
2022-11-20T09:19:40.647Z,26.83
2022-11-20T09:21:50.507Z,27.20
2022-11-20T09:24:18.976Z,26.47
2022-11-20T09:26:47.435Z,26.40
2022-11-20T09:29:15.857Z,26.33
2022-11-20T09:31:44.230Z,27.27
2022-11-20T09:34:12.628Z,27.37
2022-11-20T09:36:40.928Z,26.37
2022-11-20T09:39:10.530Z,29.13
2022-11-20T09:42:20.782Z,28.27
2022-11-20T09:45:02.006Z,27.90
2022-11-20T09:47:45.727Z,27.07
2022-11-20T09:50:25.977Z,26.50
2022-11-20T09:53:12.895Z,27.20
2022-11-20T09:55:42.607Z,28.30
2022-11-20T09:58:23.499Z,24.57
2022-11-20T10:00:53.539Z,28.40
2022-11-20T10:03:28.843Z,25.77
2022-11-20T10:05:58.740Z,26.10
2022-11-20T10:08:31.577Z,27.77
2022-11-20T10:11:08.970Z,27.40
2022-11-20T10:13:47.400Z,27.50
2022-11-20T10:16:28.118Z,26.17
2022-11-20T10:19:12.950Z,25.93
2022-11-20T10:21:53.445Z,27.93
2022-11-20T10:24:44.787Z,29.07
2022-11-20T10:27:39.525Z,25.27
2022-11-20T10:30:12.859Z,25.27
2022-11-20T10:32:43.447Z,26.03
2022-11-20T10:35:24.046Z,25.53
2022-11-20T10:37:58.498Z,27.10
2022-11-20T10:40:34.803Z,28.07
2022-11-20T10:43:13.394Z,31.50
2022-11-20T10:45:59.115Z,26.67
2022-11-20T10:48:29.346Z,27.77
2022-11-20T10:51:20.674Z,26.73
2022-11-20T10:54:06.419Z,26.00
2022-11-20T10:56:43.261Z,27.47
2022-11-20T10:59:53.736Z,27.73
2022-11-20T11:02:24.859Z,27.70
2022-11-20T11:04:54.346Z,29.63
2022-11-20T11:07:26.836Z,27.20
2022-11-20T11:09:57.040Z,27.27
2022-11-20T11:12:27.880Z,29.83
2022-11-20T11:14:59.623Z,29.27
2022-11-20T11:17:31.211Z,29.87
2022-11-20T11:20:08.408Z,31.23
2022-11-20T11:22:47.098Z,28.43
2022-11-20T11:25:28.535Z,30.83
2022-11-20T11:27:58.448Z,28.23
2022-11-20T11:30:31.049Z,30.87
2022-11-20T11:33:07.645Z,28.67
2022-11-20T11:35:49.743Z,30.83
2022-11-20T11:38:29.207Z,26.47
2022-11-20T11:40:58.547Z,28.53
2022-11-20T11:43:46.070Z,28.73
2022-11-20T11:46:32.025Z,26.83
2022-11-20T11:49:01.732Z,27.10
2022-11-20T11:51:36.828Z,25.93
2022-11-20T11:54:25.176Z,28.73
2022-11-20T11:56:55.063Z,26.47
2022-11-20T11:59:29.357Z,26.77
2022-11-20T12:02:01.813Z,29.00
2022-11-20T12:04:44.207Z,27.37
2022-11-20T12:07:44.945Z,27.40
2022-11-20T12:10:15.147Z,28.50
2022-11-20T12:12:46.298Z,30.43
2022-11-20T12:15:30.859Z,28.80
2022-11-20T12:18:00.671Z,26.20
2022-11-20T12:20:33.635Z,25.97
2022-11-20T12:23:11.110Z,27.90
2022-11-20T12:25:41.499Z,27.03
2022-11-20T12:28:37.950Z,25.30
2022-11-20T12:31:28.773Z,24.70
2022-11-20T12:34:08.551Z,25.73
2022-11-20T12:36:43.209Z,25.20
2022-11-20T12:39:43.000Z,24.83
2022-11-20T12:42:44.571Z,25.87
2022-11-20T12:45:53.875Z,26.13
2022-11-20T12:48:43.508Z,25.13
2022-11-20T12:51:27.577Z,26.03
2022-11-20T12:54:10.786Z,24.73
2022-11-20T12:56:45.575Z,25.30
2022-11-20T12:59:32.007Z,24.63
2022-11-20T13:02:11.614Z,31.47
2022-11-20T13:05:02.218Z,26.17
2022-11-20T13:07:34.305Z,24.90
2022-11-20T13:10:04.880Z,26.70
2022-11-20T13:12:42.487Z,25.37
2022-11-20T13:15:24.293Z,26.90
2022-11-20T13:17:57.853Z,25.87
2022-11-20T13:20:26.845Z,26.67
2022-11-20T13:22:58.224Z,25.70
2022-11-20T13:25:28.765Z,25.87
2022-11-20T13:27:58.951Z,24.77
2022-11-20T13:30:28.336Z,24.73
2022-11-20T13:32:58.417Z,25.20
2022-11-20T13:35:30.147Z,24.13
2022-11-20T13:38:09.197Z,24.97
2022-11-20T13:40:40.776Z,24.20
2022-11-20T13:43:23.796Z,25.83
2022-11-20T13:46:02.079Z,26.77
2022-11-20T13:48:34.481Z,27.10
2022-11-20T13:51:18.099Z,26.40
2022-11-20T13:54:07.213Z,26.63
2022-11-20T13:56:49.765Z,24.97
2022-11-20T13:59:36.906Z,26.60
2022-11-20T14:02:05.437Z,27.40
2022-11-20T14:04:38.829Z,26.27
2022-11-20T14:07:08.538Z,26.30
2022-11-20T14:09:38.209Z,25.27
2022-11-20T14:12:20.450Z,25.73
2022-11-20T14:14:53.594Z,26.27
2022-11-20T14:17:26.281Z,26.70
2022-11-20T14:19:56.048Z,25.07
2022-11-20T14:22:25.936Z,25.73
2022-11-20T14:25:08.586Z,28.53
2022-11-20T14:27:39.392Z,28.50
2022-11-20T14:30:14.512Z,28.23
2022-11-20T14:32:44.374Z,27.97
2022-11-20T14:35:20.659Z,29.13
2022-11-20T14:37:49.506Z,30.93
2022-11-20T14:40:31.212Z,28.77
2022-11-20T14:43:01.239Z,27.33
2022-11-20T14:45:29.907Z,27.83
2022-11-20T14:48:00.137Z,28.63
2022-11-20T14:50:30.258Z,29.20
2022-11-20T14:53:00.746Z,28.40
2022-11-20T14:55:33.346Z,27.63
2022-11-20T14:58:03.714Z,27.57
2022-11-20T15:00:33.804Z,27.67
2022-11-20T15:03:02.340Z,26.67
2022-11-20T15:05:49.690Z,26.93
2022-11-20T15:08:18.848Z,25.77
2022-11-20T15:10:53.520Z,26.93
2022-11-20T15:13:31.385Z,27.30
2022-11-20T15:16:02.177Z,26.53
2022-11-20T15:18:33.092Z,41.10
2022-11-20T15:21:04.411Z,38.83
2022-11-20T15:23:32.756Z,35.07
2022-11-20T15:26:02.562Z,30.93
2022-11-20T15:28:33.918Z,31.27
2022-11-20T15:31:04.084Z,29.40
2022-11-20T15:33:32.889Z,35.50
2022-11-20T15:36:01.565Z,34.30
2022-11-20T15:38:29.927Z,33.27
2022-11-20T15:40:58.875Z,32.47
2022-11-20T15:43:28.450Z,42.40
2022-11-20T15:46:01.988Z,38.50
2022-11-20T15:48:33.045Z,33.53
2022-11-20T15:51:05.779Z,30.67
2022-11-20T15:53:34.077Z,32.37
2022-11-20T15:56:02.526Z,32.03
2022-11-20T15:58:32.238Z,34.87
2022-11-20T16:01:00.765Z,35.47
2022-11-20T16:03:29.007Z,33.57
2022-11-20T16:05:57.328Z,40.50
2022-11-20T16:08:25.654Z,43.40
2022-11-20T16:10:53.925Z,36.87
2022-11-20T16:13:39.788Z,52.67
2022-11-20T16:16:13.916Z,40.23
2022-11-20T16:18:42.353Z,42.53
2022-11-20T16:21:14.330Z,34.40
2022-11-20T16:23:44.057Z,31.77
2022-11-20T16:26:13.129Z,46.60
2022-11-20T16:28:41.903Z,42.57
2022-11-20T16:31:12.758Z,38.17
2022-11-20T16:33:41.721Z,38.10
2022-11-20T16:36:14.637Z,41.90
2022-11-20T16:38:43.584Z,51.83
2022-11-20T16:41:14.668Z,35.80
2022-11-20T16:43:48.600Z,36.87
2022-11-20T16:46:19.319Z,33.17
2022-11-20T16:48:54.045Z,31.93
2022-11-20T16:51:23.288Z,37.23
2022-11-20T16:53:52.056Z,37.50
2022-11-20T16:56:22.028Z,38.93
2022-11-20T16:58:52.155Z,38.37
2022-11-20T17:01:23.332Z,71.50
2022-11-20T17:03:57.376Z,49.90
2022-11-20T17:06:27.954Z,45.90
2022-11-20T17:08:57.420Z,42.93
2022-11-20T17:11:26.709Z,39.67
2022-11-20T17:13:56.341Z,40.47
2022-11-20T17:16:26.748Z,37.10
2022-11-20T17:19:01.352Z,33.17
2022-11-20T17:21:31.835Z,35.00
2022-11-20T17:24:03.382Z,31.67
2022-11-20T17:26:32.021Z,29.43
2022-11-20T17:29:01.951Z,32.97
2022-11-20T17:31:34.070Z,28.20
2022-11-20T17:34:02.798Z,28.67
2022-11-20T17:36:31.866Z,29.37
2022-11-20T17:39:01.555Z,30.10
2022-11-20T17:41:31.188Z,29.43
2022-11-20T17:44:01.445Z,27.67
2022-11-20T17:46:33.976Z,30.13
2022-11-20T17:49:03.081Z,32.67
2022-11-20T17:51:33.358Z,39.97
2022-11-20T17:54:03.275Z,32.57
2022-11-20T17:56:50.645Z,52.90
2022-11-20T17:59:19.846Z,51.73
2022-11-20T18:01:49.683Z,40.53
2022-11-20T18:04:18.277Z,37.60
2022-11-20T18:06:46.938Z,39.30
2022-11-20T18:09:15.326Z,32.27
2022-11-20T18:11:45.583Z,30.63
2022-11-20T18:14:32.286Z,29.70
2022-11-20T18:17:03.999Z,31.10
2022-11-20T18:19:37.571Z,30.93
2022-11-20T18:22:09.045Z,29.13
2022-11-20T18:24:39.372Z,27.87
2022-11-20T18:27:09.525Z,28.53
2022-11-20T18:29:37.866Z,29.60
2022-11-20T18:32:07.587Z,29.93
2022-11-20T18:34:35.835Z,29.67
2022-11-20T18:37:04.626Z,30.43
2022-11-20T18:39:33.026Z,29.37
2022-11-20T18:42:18.966Z,30.23
2022-11-20T18:44:53.969Z,31.87
2022-11-20T18:47:27.907Z,35.73
2022-11-20T18:49:57.516Z,32.13
2022-11-20T18:52:27.423Z,32.20
2022-11-20T18:54:56.549Z,34.27
2022-11-20T18:57:26.829Z,42.83
2022-11-20T18:59:55.522Z,36.87
2022-11-20T19:02:25.128Z,34.80
2022-11-20T19:04:53.498Z,47.67
2022-11-20T19:07:22.508Z,63.60
2022-11-20T19:09:52.518Z,40.57
2022-11-20T19:12:24.090Z,53.27
2022-11-20T19:14:53.039Z,60.17
2022-11-20T19:17:21.403Z,47.53
2022-11-20T19:19:51.207Z,64.97
2022-11-20T19:22:19.769Z,68.67
2022-11-20T19:24:48.069Z,65.30
2022-11-20T19:27:16.378Z,60.77
2022-11-20T19:29:44.872Z,66.27
2022-11-20T19:32:13.186Z,73.33
2022-11-20T19:34:41.684Z,52.73
2022-11-20T19:37:11.291Z,47.53
2022-11-20T19:39:39.545Z,37.53
2022-11-20T19:42:07.847Z,41.87
2022-11-20T19:44:36.339Z,38.77
2022-11-20T19:47:08.956Z,37.23
2022-11-20T19:49:41.887Z,35.57
2022-11-20T19:52:11.526Z,40.17
2022-11-20T19:54:40.100Z,40.93
2022-11-20T19:57:08.406Z,41.80
2022-11-20T19:59:36.650Z,39.90
2022-11-20T20:02:05.112Z,34.00
2022-11-20T20:04:33.643Z,36.03
2022-11-20T20:07:03.987Z,34.30
2022-11-20T20:09:34.395Z,31.97
2022-11-20T20:12:02.704Z,35.87
2022-11-20T20:14:32.249Z,35.70
2022-11-20T20:17:00.516Z,33.97
2022-11-20T20:19:28.991Z,32.07
2022-11-20T20:21:57.308Z,29.43
2022-11-20T20:24:25.719Z,29.13
2022-11-20T20:26:58.101Z,29.23
2022-11-20T20:29:26.815Z,34.37
2022-11-20T20:31:55.196Z,42.53
2022-11-20T20:34:23.898Z,50.43
2022-11-20T20:36:52.225Z,47.40
2022-11-20T20:39:21.380Z,40.07
2022-11-20T20:41:50.118Z,55.60
2022-11-20T20:44:37.025Z,83.87
2022-11-20T20:47:05.358Z,86.53
2022-11-20T20:49:35.186Z,69.10
2022-11-20T20:52:03.474Z,59.20
2022-11-20T20:54:34.546Z,54.90
2022-11-20T20:57:03.135Z,49.33
2022-11-20T20:59:32.734Z,52.10
2022-11-20T21:02:01.107Z,39.27
2022-11-20T21:04:29.475Z,45.13
2022-11-20T21:06:57.716Z,40.83
2022-11-20T21:09:26.105Z,36.17
2022-11-20T21:11:55.809Z,35.73
2022-11-20T21:14:24.524Z,39.20
2022-11-20T21:16:54.328Z,47.67
2022-11-20T21:19:22.735Z,45.77
2022-11-20T21:21:59.470Z,41.47
2022-11-20T21:24:28.367Z,44.33
2022-11-20T21:26:57.505Z,44.80
2022-11-20T21:29:29.379Z,42.73
2022-11-20T21:31:59.745Z,35.30
2022-11-20T21:34:28.341Z,33.83
2022-11-20T21:36:56.667Z,34.57
2022-11-20T21:39:24.998Z,37.70
2022-11-20T21:41:53.279Z,34.50
2022-11-20T21:44:30.937Z,36.10
2022-11-20T21:47:01.078Z,29.90
2022-11-20T21:49:29.434Z,29.73
2022-11-20T21:51:57.727Z,30.17
2022-11-20T21:54:26.581Z,30.20
2022-11-20T21:56:55.118Z,31.53
2022-11-20T21:59:23.652Z,32.13
2022-11-20T22:01:52.045Z,31.17
2022-11-20T22:04:23.115Z,31.77
2022-11-20T22:06:51.692Z,34.07
2022-11-20T22:09:20.085Z,32.77
2022-11-20T22:11:48.664Z,38.50
2022-11-20T22:14:23.492Z,36.30
2022-11-20T22:16:53.987Z,46.53
2022-11-20T22:19:24.581Z,38.67
2022-11-20T22:21:53.247Z,39.73
2022-11-20T22:24:23.967Z,33.77
2022-11-20T22:26:52.559Z,45.30
2022-11-20T22:29:22.136Z,37.53
2022-11-20T22:31:52.907Z,44.10
2022-11-20T22:34:21.577Z,51.00
2022-11-20T22:36:51.297Z,60.03
2022-11-20T22:39:22.767Z,57.47
2022-11-20T22:41:51.157Z,56.23
2022-11-20T22:44:19.438Z,50.47
2022-11-20T22:46:47.714Z,49.60
2022-11-20T22:49:16.017Z,49.90
2022-11-20T22:51:44.475Z,43.83
2022-11-20T22:54:14.699Z,47.43
2022-11-20T22:56:43.298Z,44.83
2022-11-20T22:59:11.783Z,63.50
2022-11-20T23:01:40.118Z,48.93
2022-11-20T23:04:11.669Z,119.73
2022-11-20T23:06:40.208Z,57.57
2022-11-20T23:09:09.887Z,49.07
2022-11-20T23:11:39.594Z,64.23
2022-11-20T23:14:09.526Z,41.97
2022-11-20T23:16:37.957Z,65.90
2022-11-20T23:19:08.209Z,41.03
2022-11-20T23:21:37.996Z,35.30
2022-11-20T23:24:07.433Z,110.80
2022-11-20T23:26:38.062Z,67.57
2022-11-20T23:29:08.246Z,39.07
2022-11-20T23:31:37.278Z,41.63
2022-11-20T23:34:05.751Z,122.27
2022-11-20T23:36:34.381Z,95.93
2022-11-20T23:39:02.627Z,41.43
2022-11-20T23:41:30.918Z,45.67
2022-11-20T23:43:59.236Z,43.70
2022-11-20T23:46:28.826Z,58.00
2022-11-20T23:48:57.268Z,42.33
2022-11-20T23:51:25.758Z,142.13
2022-11-20T23:53:54.037Z,58.67
2022-11-20T23:56:22.354Z,64.77
2022-11-20T23:58:50.736Z,87.57
